sensor_id;sensor_type;location;lat;lon;timestamp;P1;durP1;ratioP1;P2;durP2;ratioP2
57577;SDS011;43413;-33.790;150.826;2022-08-18T00:01:23;8.07;;;4.63;;
57577;SDS011;43413;-33.790;150.826;2022-08-18T00:03:50;8.18;;;5.03;;
57577;SDS011;43413;-33.790;150.826;2022-08-18T00:06:18;10.68;;;6.38;;
57577;SDS011;43413;-33.790;150.826;2022-08-18T00:08:45;10.90;;;7.00;;
57577;SDS011;43413;-33.790;150.826;2022-08-18T00:11:12;9.57;;;6.30;;
57577;SDS011;43413;-33.790;150.826;2022-08-18T00:13:40;10.35;;;5.93;;
57577;SDS011;43413;-33.790;150.826;2022-08-18T00:16:07;8.35;;;4.93;;
57577;SDS011;43413;-33.790;150.826;2022-08-18T00:18:35;9.20;;;4.93;;
57577;SDS011;43413;-33.790;150.826;2022-08-18T00:21:02;12.25;;;4.43;;
57577;SDS011;43413;-33.790;150.826;2022-08-18T00:23:29;10.15;;;4.45;;
57577;SDS011;43413;-33.790;150.826;2022-08-18T00:25:57;7.03;;;3.05;;
57577;SDS011;43413;-33.790;150.826;2022-08-18T00:28:24;6.80;;;3.20;;
57577;SDS011;43413;-33.790;150.826;2022-08-18T00:30:52;5.80;;;2.92;;
57577;SDS011;43413;-33.790;150.826;2022-08-18T00:33:19;5.18;;;2.50;;
57577;SDS011;43413;-33.790;150.826;2022-08-18T00:35:46;6.43;;;2.92;;
57577;SDS011;43413;-33.790;150.826;2022-08-18T00:38:13;7.03;;;2.90;;
57577;SDS011;43413;-33.790;150.826;2022-08-18T00:40:42;8.23;;;2.35;;
57577;SDS011;43413;-33.790;150.826;2022-08-18T00:43:14;8.05;;;2.72;;
57577;SDS011;43413;-33.790;150.826;2022-08-18T00:45:43;6.50;;;2.22;;
57577;SDS011;43413;-33.790;150.826;2022-08-18T00:48:11;8.98;;;2.50;;
57577;SDS011;43413;-33.790;150.826;2022-08-18T00:50:46;7.03;;;2.35;;
57577;SDS011;43413;-33.790;150.826;2022-08-18T00:53:16;7.00;;;2.33;;
57577;SDS011;43413;-33.790;150.826;2022-08-18T00:55:44;5.55;;;1.73;;
57577;SDS011;43413;-33.790;150.826;2022-08-18T00:58:19;4.57;;;1.80;;
57577;SDS011;43413;-33.790;150.826;2022-08-18T01:00:48;6.10;;;1.67;;
57577;SDS011;43413;-33.790;150.826;2022-08-18T01:03:18;4.03;;;1.50;;
57577;SDS011;43413;-33.790;150.826;2022-08-18T01:05:54;3.75;;;1.40;;
57577;SDS011;43413;-33.790;150.826;2022-08-18T01:08:22;2.72;;;1.60;;
57577;SDS011;43413;-33.790;150.826;2022-08-18T01:10:50;2.42;;;1.50;;
57577;SDS011;43413;-33.790;150.826;2022-08-18T01:13:18;2.97;;;1.20;;
57577;SDS011;43413;-33.790;150.826;2022-08-18T01:15:45;3.47;;;1.30;;
57577;SDS011;43413;-33.790;150.826;2022-08-18T01:18:13;3.10;;;1.20;;
57577;SDS011;43413;-33.790;150.826;2022-08-18T01:23:44;4.25;;;2.00;;
57577;SDS011;43413;-33.790;150.826;2022-08-18T01:26:14;2.22;;;1.33;;
57577;SDS011;43413;-33.790;150.826;2022-08-18T01:28:43;3.97;;;1.38;;
57577;SDS011;43413;-33.790;150.826;2022-08-18T01:34:02;3.70;;;1.40;;
57577;SDS011;43413;-33.790;150.826;2022-08-18T01:36:30;7.07;;;2.20;;
57577;SDS011;43413;-33.790;150.826;2022-08-18T01:39:03;4.53;;;1.55;;
57577;SDS011;43413;-33.790;150.826;2022-08-18T01:41:30;5.18;;;1.63;;
57577;SDS011;43413;-33.790;150.826;2022-08-18T01:43:57;5.15;;;1.75;;
57577;SDS011;43413;-33.790;150.826;2022-08-18T01:46:26;6.65;;;1.30;;
57577;SDS011;43413;-33.790;150.826;2022-08-18T01:48:53;4.90;;;1.73;;
57577;SDS011;43413;-33.790;150.826;2022-08-18T01:51:22;2.60;;;1.45;;
57577;SDS011;43413;-33.790;150.826;2022-08-18T01:53:50;3.47;;;1.33;;
57577;SDS011;43413;-33.790;150.826;2022-08-18T01:56:17;4.57;;;1.10;;
57577;SDS011;43413;-33.790;150.826;2022-08-18T01:58:44;4.57;;;1.30;;
57577;SDS011;43413;-33.790;150.826;2022-08-18T02:01:13;4.80;;;1.30;;
57577;SDS011;43413;-33.790;150.826;2022-08-18T02:03:42;2.10;;;1.05;;
57577;SDS011;43413;-33.790;150.826;2022-08-18T02:06:12;3.97;;;1.80;;
57577;SDS011;43413;-33.790;150.826;2022-08-18T02:08:42;4.43;;;1.60;;
57577;SDS011;43413;-33.790;150.826;2022-08-18T02:11:09;3.90;;;1.67;;
57577;SDS011;43413;-33.790;150.826;2022-08-18T02:13:37;3.50;;;1.55;;
57577;SDS011;43413;-33.790;150.826;2022-08-18T02:16:05;2.70;;;1.40;;
57577;SDS011;43413;-33.790;150.826;2022-08-18T02:18:33;3.45;;;1.38;;
57577;SDS011;43413;-33.790;150.826;2022-08-18T02:21:11;3.35;;;1.75;;
57577;SDS011;43413;-33.790;150.826;2022-08-18T02:23:39;7.40;;;1.50;;
57577;SDS011;43413;-33.790;150.826;2022-08-18T02:26:07;2.65;;;1.20;;
57577;SDS011;43413;-33.790;150.826;2022-08-18T02:28:35;5.50;;;1.33;;
57577;SDS011;43413;-33.790;150.826;2022-08-18T02:31:03;2.50;;;1.23;;
57577;SDS011;43413;-33.790;150.826;2022-08-18T02:33:30;7.40;;;1.40;;
57577;SDS011;43413;-33.790;150.826;2022-08-18T02:35:58;2.28;;;1.20;;
57577;SDS011;43413;-33.790;150.826;2022-08-18T02:38:25;2.03;;;0.80;;
57577;SDS011;43413;-33.790;150.826;2022-08-18T02:40:56;6.10;;;1.08;;
57577;SDS011;43413;-33.790;150.826;2022-08-18T02:43:27;5.03;;;1.00;;
57577;SDS011;43413;-33.790;150.826;2022-08-18T02:45:55;4.63;;;1.20;;
57577;SDS011;43413;-33.790;150.826;2022-08-18T02:48:26;4.68;;;1.10;;
57577;SDS011;43413;-33.790;150.826;2022-08-18T02:51:07;3.03;;;1.00;;
57577;SDS011;43413;-33.790;150.826;2022-08-18T02:53:47;2.75;;;1.10;;
57577;SDS011;43413;-33.790;150.826;2022-08-18T02:56:15;3.03;;;0.93;;
57577;SDS011;43413;-33.790;150.826;2022-08-18T02:58:45;4.13;;;1.00;;
57577;SDS011;43413;-33.790;150.826;2022-08-18T03:01:15;3.35;;;0.98;;
57577;SDS011;43413;-33.790;150.826;2022-08-18T03:03:42;4.68;;;0.98;;
57577;SDS011;43413;-33.790;150.826;2022-08-18T03:06:12;3.33;;;0.98;;
57577;SDS011;43413;-33.790;150.826;2022-08-18T03:08:39;1.55;;;0.82;;
57577;SDS011;43413;-33.790;150.826;2022-08-18T03:11:07;2.72;;;0.82;;
57577;SDS011;43413;-33.790;150.826;2022-08-18T03:13:34;5.03;;;1.50;;
57577;SDS011;43413;-33.790;150.826;2022-08-18T03:16:07;2.17;;;1.10;;
57577;SDS011;43413;-33.790;150.826;2022-08-18T03:18:34;3.50;;;0.98;;
57577;SDS011;43413;-33.790;150.826;2022-08-18T03:21:06;2.83;;;1.10;;
57577;SDS011;43413;-33.790;150.826;2022-08-18T03:23:34;4.57;;;0.98;;
57577;SDS011;43413;-33.790;150.826;2022-08-18T03:26:05;2.70;;;1.00;;
57577;SDS011;43413;-33.790;150.826;2022-08-18T03:28:36;2.92;;;1.33;;
57577;SDS011;43413;-33.790;150.826;2022-08-18T03:31:05;3.72;;;0.80;;
57577;SDS011;43413;-33.790;150.826;2022-08-18T03:33:33;2.38;;;0.90;;
57577;SDS011;43413;-33.790;150.826;2022-08-18T03:36:07;2.72;;;0.90;;
57577;SDS011;43413;-33.790;150.826;2022-08-18T03:38:35;5.53;;;0.95;;
57577;SDS011;43413;-33.790;150.826;2022-08-18T03:41:03;1.63;;;0.80;;
57577;SDS011;43413;-33.790;150.826;2022-08-18T03:43:31;5.07;;;1.13;;
57577;SDS011;43413;-33.790;150.826;2022-08-18T03:46:07;3.88;;;0.70;;
57577;SDS011;43413;-33.790;150.826;2022-08-18T03:48:35;6.03;;;1.00;;
57577;SDS011;43413;-33.790;150.826;2022-08-18T03:51:05;4.90;;;1.23;;
57577;SDS011;43413;-33.790;150.826;2022-08-18T03:53:36;2.65;;;0.90;;
57577;SDS011;43413;-33.790;150.826;2022-08-18T03:56:10;5.35;;;0.93;;
57577;SDS011;43413;-33.790;150.826;2022-08-18T03:58:44;4.47;;;1.05;;
57577;SDS011;43413;-33.790;150.826;2022-08-18T04:01:12;2.15;;;1.13;;
57577;SDS011;43413;-33.790;150.826;2022-08-18T04:03:43;1.88;;;1.20;;
57577;SDS011;43413;-33.790;150.826;2022-08-18T04:06:18;1.92;;;1.05;;
57577;SDS011;43413;-33.790;150.826;2022-08-18T04:08:47;3.78;;;1.30;;
57577;SDS011;43413;-33.790;150.826;2022-08-18T04:11:16;3.10;;;1.20;;
57577;SDS011;43413;-33.790;150.826;2022-08-18T04:13:43;7.22;;;1.30;;
57577;SDS011;43413;-33.790;150.826;2022-08-18T04:16:11;4.18;;;1.10;;
57577;SDS011;43413;-33.790;150.826;2022-08-18T04:18:39;4.60;;;1.25;;
57577;SDS011;43413;-33.790;150.826;2022-08-18T04:21:07;2.97;;;0.90;;
57577;SDS011;43413;-33.790;150.826;2022-08-18T04:23:36;2.53;;;1.10;;
57577;SDS011;43413;-33.790;150.826;2022-08-18T04:26:04;1.92;;;1.00;;
57577;SDS011;43413;-33.790;150.826;2022-08-18T04:28:31;4.68;;;1.27;;
57577;SDS011;43413;-33.790;150.826;2022-08-18T04:31:04;2.45;;;1.17;;
57577;SDS011;43413;-33.790;150.826;2022-08-18T04:33:31;2.78;;;1.10;;
57577;SDS011;43413;-33.790;150.826;2022-08-18T04:36:05;2.45;;;1.23;;
57577;SDS011;43413;-33.790;150.826;2022-08-18T04:38:33;2.00;;;1.02;;
57577;SDS011;43413;-33.790;150.826;2022-08-18T04:41:00;3.47;;;1.20;;
57577;SDS011;43413;-33.790;150.826;2022-08-18T04:43:28;5.63;;;1.25;;
57577;SDS011;43413;-33.790;150.826;2022-08-18T04:45:55;3.25;;;1.20;;
57577;SDS011;43413;-33.790;150.826;2022-08-18T04:48:29;3.08;;;1.40;;
57577;SDS011;43413;-33.790;150.826;2022-08-18T04:51:07;3.08;;;1.30;;
57577;SDS011;43413;-33.790;150.826;2022-08-18T04:56:18;3.50;;;1.33;;
57577;SDS011;43413;-33.790;150.826;2022-08-18T04:58:55;2.10;;;1.13;;
57577;SDS011;43413;-33.790;150.826;2022-08-18T05:01:26;1.98;;;1.10;;
57577;SDS011;43413;-33.790;150.826;2022-08-18T05:03:55;1.70;;;1.00;;
57577;SDS011;43413;-33.790;150.826;2022-08-18T05:06:24;2.28;;;0.93;;
57577;SDS011;43413;-33.790;150.826;2022-08-18T05:08:55;3.72;;;0.90;;
57577;SDS011;43413;-33.790;150.826;2022-08-18T05:11:24;1.70;;;0.82;;
57577;SDS011;43413;-33.790;150.826;2022-08-18T05:13:54;2.55;;;1.08;;
57577;SDS011;43413;-33.790;150.826;2022-08-18T05:16:22;1.63;;;1.10;;
57577;SDS011;43413;-33.790;150.826;2022-08-18T05:18:50;2.10;;;1.20;;
57577;SDS011;43413;-33.790;150.826;2022-08-18T05:21:20;3.00;;;1.20;;
57577;SDS011;43413;-33.790;150.826;2022-08-18T05:23:52;3.55;;;0.93;;
57577;SDS011;43413;-33.790;150.826;2022-08-18T05:26:22;1.75;;;0.70;;
57577;SDS011;43413;-33.790;150.826;2022-08-18T05:28:50;1.67;;;0.80;;
57577;SDS011;43413;-33.790;150.826;2022-08-18T05:31:19;2.03;;;0.85;;
57577;SDS011;43413;-33.790;150.826;2022-08-18T05:33:47;4.80;;;0.90;;
57577;SDS011;43413;-33.790;150.826;2022-08-18T05:41:25;4.07;;;1.20;;
57577;SDS011;43413;-33.790;150.826;2022-08-18T05:43:53;4.55;;;1.20;;
57577;SDS011;43413;-33.790;150.826;2022-08-18T05:46:23;4.60;;;1.10;;
57577;SDS011;43413;-33.790;150.826;2022-08-18T05:48:55;5.60;;;1.30;;
57577;SDS011;43413;-33.790;150.826;2022-08-18T05:51:25;4.68;;;1.23;;
57577;SDS011;43413;-33.790;150.826;2022-08-18T05:53:53;5.28;;;1.17;;
57577;SDS011;43413;-33.790;150.826;2022-08-18T05:56:39;2.17;;;1.10;;
57577;SDS011;43413;-33.790;150.826;2022-08-18T05:59:18;6.15;;;1.42;;
57577;SDS011;43413;-33.790;150.826;2022-08-18T06:01:49;4.78;;;1.30;;
57577;SDS011;43413;-33.790;150.826;2022-08-18T06:04:29;6.65;;;1.38;;
57577;SDS011;43413;-33.790;150.826;2022-08-18T06:07:01;11.20;;;1.63;;
57577;SDS011;43413;-33.790;150.826;2022-08-18T06:12:24;12.60;;;1.88;;
57577;SDS011;43413;-33.790;150.826;2022-08-18T06:14:54;6.30;;;1.40;;
57577;SDS011;43413;-33.790;150.826;2022-08-18T06:22:53;5.63;;;1.20;;
57577;SDS011;43413;-33.790;150.826;2022-08-18T06:25:34;3.63;;;1.30;;
57577;SDS011;43413;-33.790;150.826;2022-08-18T06:28:07;13.40;;;1.65;;
57577;SDS011;43413;-33.790;150.826;2022-08-18T06:30:43;16.25;;;2.30;;
57577;SDS011;43413;-33.790;150.826;2022-08-18T06:36:15;16.60;;;2.17;;
57577;SDS011;43413;-33.790;150.826;2022-08-18T06:43:59;20.40;;;2.97;;
57577;SDS011;43413;-33.790;150.826;2022-08-18T06:46:45;28.20;;;2.88;;
57577;SDS011;43413;-33.790;150.826;2022-08-18T06:52:20;29.00;;;3.30;;
57577;SDS011;43413;-33.790;150.826;2022-08-18T06:54:48;36.08;;;3.10;;
57577;SDS011;43413;-33.790;150.826;2022-08-18T06:57:37;23.90;;;3.13;;
57577;SDS011;43413;-33.790;150.826;2022-08-18T07:00:24;14.20;;;2.47;;
57577;SDS011;43413;-33.790;150.826;2022-08-18T07:02:51;29.25;;;4.95;;
57577;SDS011;43413;-33.790;150.826;2022-08-18T07:05:27;35.53;;;4.30;;
57577;SDS011;43413;-33.790;150.826;2022-08-18T07:10:41;50.65;;;4.55;;
57577;SDS011;43413;-33.790;150.826;2022-08-18T07:15:39;34.28;;;4.18;;
57577;SDS011;43413;-33.790;150.826;2022-08-18T07:18:10;47.25;;;9.88;;
57577;SDS011;43413;-33.790;150.826;2022-08-18T07:20:42;32.63;;;7.03;;
57577;SDS011;43413;-33.790;150.826;2022-08-18T07:23:19;22.13;;;3.53;;
57577;SDS011;43413;-33.790;150.826;2022-08-18T07:25:47;20.83;;;2.92;;
57577;SDS011;43413;-33.790;150.826;2022-08-18T07:28:26;15.82;;;2.58;;
57577;SDS011;43413;-33.790;150.826;2022-08-18T07:31:03;12.15;;;2.70;;
57577;SDS011;43413;-33.790;150.826;2022-08-18T07:33:32;14.70;;;2.58;;
57577;SDS011;43413;-33.790;150.826;2022-08-18T07:36:00;10.48;;;2.40;;
57577;SDS011;43413;-33.790;150.826;2022-08-18T07:38:35;8.88;;;2.00;;
57577;SDS011;43413;-33.790;150.826;2022-08-18T07:41:22;12.00;;;2.25;;
57577;SDS011;43413;-33.790;150.826;2022-08-18T07:49:08;6.63;;;1.95;;
57577;SDS011;43413;-33.790;150.826;2022-08-18T07:51:46;6.93;;;1.77;;
57577;SDS011;43413;-33.790;150.826;2022-08-18T07:54:29;8.93;;;1.92;;
57577;SDS011;43413;-33.790;150.826;2022-08-18T07:57:02;7.35;;;1.83;;
57577;SDS011;43413;-33.790;150.826;2022-08-18T08:04:38;11.43;;;2.70;;
57577;SDS011;43413;-33.790;150.826;2022-08-18T08:07:14;8.80;;;2.63;;
57577;SDS011;43413;-33.790;150.826;2022-08-18T08:09:55;21.30;;;3.03;;
57577;SDS011;43413;-33.790;150.826;2022-08-18T08:12:35;17.10;;;3.35;;
57577;SDS011;43413;-33.790;150.826;2022-08-18T08:30:28;32.58;;;5.10;;
57577;SDS011;43413;-33.790;150.826;2022-08-18T08:35:49;23.38;;;5.88;;
57577;SDS011;43413;-33.790;150.826;2022-08-18T08:38:17;18.23;;;5.13;;
57577;SDS011;43413;-33.790;150.826;2022-08-18T08:40:52;20.25;;;5.00;;
57577;SDS011;43413;-33.790;150.826;2022-08-18T08:43:33;32.97;;;7.10;;
57577;SDS011;43413;-33.790;150.826;2022-08-18T08:46:08;17.90;;;5.97;;
57577;SDS011;43413;-33.790;150.826;2022-08-18T08:48:39;23.35;;;4.55;;
57577;SDS011;43413;-33.790;150.826;2022-08-18T08:53:58;24.60;;;6.25;;
57577;SDS011;43413;-33.790;150.826;2022-08-18T08:56:32;33.40;;;11.70;;
57577;SDS011;43413;-33.790;150.826;2022-08-18T08:59:04;34.13;;;8.40;;
57577;SDS011;43413;-33.790;150.826;2022-08-18T09:01:57;35.10;;;5.97;;
57577;SDS011;43413;-33.790;150.826;2022-08-18T09:07:10;28.10;;;6.13;;
57577;SDS011;43413;-33.790;150.826;2022-08-18T09:22:44;26.20;;;5.75;;
57577;SDS011;43413;-33.790;150.826;2022-08-18T09:28:20;18.58;;;4.60;;
57577;SDS011;43413;-33.790;150.826;2022-08-18T09:36:14;13.23;;;5.65;;
57577;SDS011;43413;-33.790;150.826;2022-08-18T09:38:50;17.10;;;5.55;;
57577;SDS011;43413;-33.790;150.826;2022-08-18T09:41:39;15.65;;;4.97;;
57577;SDS011;43413;-33.790;150.826;2022-08-18T09:51:51;20.73;;;6.03;;
57577;SDS011;43413;-33.790;150.826;2022-08-18T09:54:20;27.58;;;5.75;;
57577;SDS011;43413;-33.790;150.826;2022-08-18T10:01:58;14.50;;;5.20;;
57577;SDS011;43413;-33.790;150.826;2022-08-18T10:04:30;14.18;;;5.32;;
57577;SDS011;43413;-33.790;150.826;2022-08-18T10:15:44;29.25;;;6.05;;
57577;SDS011;43413;-33.790;150.826;2022-08-18T10:18:24;32.42;;;6.47;;
57577;SDS011;43413;-33.790;150.826;2022-08-18T10:20:59;18.60;;;5.72;;
57577;SDS011;43413;-33.790;150.826;2022-08-18T10:28:57;21.83;;;6.25;;
57577;SDS011;43413;-33.790;150.826;2022-08-18T10:31:25;20.60;;;6.22;;
57577;SDS011;43413;-33.790;150.826;2022-08-18T10:39:06;21.50;;;6.50;;
57577;SDS011;43413;-33.790;150.826;2022-08-18T10:41:36;16.60;;;5.68;;
57577;SDS011;43413;-33.790;150.826;2022-08-18T10:44:04;21.67;;;6.07;;
57577;SDS011;43413;-33.790;150.826;2022-08-18T10:46:32;25.10;;;6.93;;
57577;SDS011;43413;-33.790;150.826;2022-08-18T10:49:15;24.73;;;6.80;;
57577;SDS011;43413;-33.790;150.826;2022-08-18T10:57:11;15.18;;;7.28;;
57577;SDS011;43413;-33.790;150.826;2022-08-18T10:59:47;15.60;;;7.75;;
57577;SDS011;43413;-33.790;150.826;2022-08-18T11:02:32;19.75;;;8.10;;
57577;SDS011;43413;-33.790;150.826;2022-08-18T11:05:11;20.35;;;8.55;;
57577;SDS011;43413;-33.790;150.826;2022-08-18T11:07:40;22.92;;;10.35;;
57577;SDS011;43413;-33.790;150.826;2022-08-18T11:10:17;19.48;;;10.38;;
57577;SDS011;43413;-33.790;150.826;2022-08-18T11:12:55;18.88;;;9.63;;
57577;SDS011;43413;-33.790;150.826;2022-08-18T11:15:45;18.00;;;9.23;;
57577;SDS011;43413;-33.790;150.826;2022-08-18T11:21:20;16.25;;;8.88;;
57577;SDS011;43413;-33.790;150.826;2022-08-18T11:23:42;17.52;;;7.72;;
57577;SDS011;43413;-33.790;150.826;2022-08-18T11:27:04;14.07;;;6.65;;
57577;SDS011;43413;-33.790;150.826;2022-08-18T11:37:06;17.17;;;8.40;;
57577;SDS011;43413;-33.790;150.826;2022-08-18T11:39:40;14.55;;;7.68;;
57577;SDS011;43413;-33.790;150.826;2022-08-18T11:42:08;10.90;;;6.57;;
57577;SDS011;43413;-33.790;150.826;2022-08-18T11:44:35;14.55;;;7.93;;
57577;SDS011;43413;-33.790;150.826;2022-08-18T11:47:11;12.77;;;7.82;;
57577;SDS011;43413;-33.790;150.826;2022-08-18T11:49:44;12.82;;;7.28;;
57577;SDS011;43413;-33.790;150.826;2022-08-18T11:52:17;13.25;;;7.25;;
57577;SDS011;43413;-33.790;150.826;2022-08-18T11:54:46;15.23;;;6.57;;
57577;SDS011;43413;-33.790;150.826;2022-08-18T12:00:03;12.80;;;6.40;;
57577;SDS011;43413;-33.790;150.826;2022-08-18T12:02:47;13.18;;;6.15;;
57577;SDS011;43413;-33.790;150.826;2022-08-18T12:05:14;10.38;;;5.70;;
57577;SDS011;43413;-33.790;150.826;2022-08-18T12:07:42;11.38;;;5.85;;
57577;SDS011;43413;-33.790;150.826;2022-08-18T12:10:23;9.07;;;5.47;;
57577;SDS011;43413;-33.790;150.826;2022-08-18T12:12:53;13.52;;;5.82;;
57577;SDS011;43413;-33.790;150.826;2022-08-18T12:15:39;11.35;;;6.10;;
57577;SDS011;43413;-33.790;150.826;2022-08-18T12:18:07;12.63;;;6.15;;
57577;SDS011;43413;-33.790;150.826;2022-08-18T12:20:36;12.77;;;5.60;;
57577;SDS011;43413;-33.790;150.826;2022-08-18T12:23:04;10.73;;;5.65;;
57577;SDS011;43413;-33.790;150.826;2022-08-18T12:25:31;7.95;;;5.85;;
57577;SDS011;43413;-33.790;150.826;2022-08-18T12:27:58;10.93;;;5.90;;
57577;SDS011;43413;-33.790;150.826;2022-08-18T12:30:25;12.00;;;6.57;;
57577;SDS011;43413;-33.790;150.826;2022-08-18T12:32:52;9.05;;;5.38;;
57577;SDS011;43413;-33.790;150.826;2022-08-18T12:35:19;15.15;;;5.38;;
57577;SDS011;43413;-33.790;150.826;2022-08-18T12:37:46;11.23;;;5.88;;
57577;SDS011;43413;-33.790;150.826;2022-08-18T12:40:14;9.13;;;4.90;;
57577;SDS011;43413;-33.790;150.826;2022-08-18T12:42:41;10.57;;;5.90;;
57577;SDS011;43413;-33.790;150.826;2022-08-18T12:45:09;10.27;;;5.63;;
57577;SDS011;43413;-33.790;150.826;2022-08-18T12:47:37;8.20;;;4.90;;
57577;SDS011;43413;-33.790;150.826;2022-08-18T12:50:06;7.75;;;5.30;;
57577;SDS011;43413;-33.790;150.826;2022-08-18T12:52:33;11.70;;;5.65;;
57577;SDS011;43413;-33.790;150.826;2022-08-18T12:55:00;10.23;;;6.50;;
57577;SDS011;43413;-33.790;150.826;2022-08-18T12:57:28;14.27;;;6.90;;
57577;SDS011;43413;-33.790;150.826;2022-08-18T12:59:58;10.10;;;5.97;;
57577;SDS011;43413;-33.790;150.826;2022-08-18T13:02:25;8.20;;;5.70;;
57577;SDS011;43413;-33.790;150.826;2022-08-18T13:04:52;9.25;;;5.70;;
57577;SDS011;43413;-33.790;150.826;2022-08-18T13:07:19;13.40;;;6.35;;
57577;SDS011;43413;-33.790;150.826;2022-08-18T13:09:49;13.85;;;5.95;;
57577;SDS011;43413;-33.790;150.826;2022-08-18T13:12:20;11.23;;;6.25;;
57577;SDS011;43413;-33.790;150.826;2022-08-18T13:14:52;13.60;;;6.68;;
57577;SDS011;43413;-33.790;150.826;2022-08-18T13:17:20;14.88;;;6.93;;
57577;SDS011;43413;-33.790;150.826;2022-08-18T13:19:50;12.18;;;7.05;;
57577;SDS011;43413;-33.790;150.826;2022-08-18T13:22:17;12.13;;;6.65;;
57577;SDS011;43413;-33.790;150.826;2022-08-18T13:24:47;10.07;;;6.25;;
57577;SDS011;43413;-33.790;150.826;2022-08-18T13:27:15;9.90;;;5.38;;
57577;SDS011;43413;-33.790;150.826;2022-08-18T13:29:45;9.77;;;4.50;;
57577;SDS011;43413;-33.790;150.826;2022-08-18T13:32:12;10.50;;;4.60;;
57577;SDS011;43413;-33.790;150.826;2022-08-18T13:34:43;8.57;;;4.60;;
57577;SDS011;43413;-33.790;150.826;2022-08-18T13:37:13;11.90;;;4.10;;
57577;SDS011;43413;-33.790;150.826;2022-08-18T13:39:43;6.95;;;4.20;;
57577;SDS011;43413;-33.790;150.826;2022-08-18T13:42:10;7.80;;;4.13;;
57577;SDS011;43413;-33.790;150.826;2022-08-18T13:44:38;7.25;;;3.92;;
57577;SDS011;43413;-33.790;150.826;2022-08-18T13:47:06;9.13;;;3.78;;
57577;SDS011;43413;-33.790;150.826;2022-08-18T13:49:33;8.98;;;4.95;;
57577;SDS011;43413;-33.790;150.826;2022-08-18T13:52:06;12.13;;;5.10;;
57577;SDS011;43413;-33.790;150.826;2022-08-18T13:54:37;8.93;;;4.45;;
57577;SDS011;43413;-33.790;150.826;2022-08-18T13:57:04;5.90;;;3.30;;
57577;SDS011;43413;-33.790;150.826;2022-08-18T13:59:31;4.93;;;3.17;;
57577;SDS011;43413;-33.790;150.826;2022-08-18T14:01:59;7.35;;;3.20;;
57577;SDS011;43413;-33.790;150.826;2022-08-18T14:04:27;4.05;;;2.58;;
57577;SDS011;43413;-33.790;150.826;2022-08-18T14:06:54;5.75;;;2.97;;
57577;SDS011;43413;-33.790;150.826;2022-08-18T14:09:21;4.60;;;2.78;;
57577;SDS011;43413;-33.790;150.826;2022-08-18T14:11:49;5.40;;;2.50;;
57577;SDS011;43413;-33.790;150.826;2022-08-18T14:14:16;14.13;;;6.03;;
57577;SDS011;43413;-33.790;150.826;2022-08-18T14:16:45;5.82;;;3.20;;
57577;SDS011;43413;-33.790;150.826;2022-08-18T14:19:12;6.43;;;2.55;;
57577;SDS011;43413;-33.790;150.826;2022-08-18T14:21:57;3.88;;;2.20;;
57577;SDS011;43413;-33.790;150.826;2022-08-18T14:24:43;5.05;;;2.38;;
57577;SDS011;43413;-33.790;150.826;2022-08-18T14:27:32;4.97;;;2.60;;
57577;SDS011;43413;-33.790;150.826;2022-08-18T14:30:00;6.25;;;2.63;;
57577;SDS011;43413;-33.790;150.826;2022-08-18T14:32:27;5.15;;;2.60;;
57577;SDS011;43413;-33.790;150.826;2022-08-18T14:34:58;4.05;;;2.42;;
57577;SDS011;43413;-33.790;150.826;2022-08-18T14:37:29;4.65;;;2.35;;
57577;SDS011;43413;-33.790;150.826;2022-08-18T14:39:59;4.60;;;2.30;;
57577;SDS011;43413;-33.790;150.826;2022-08-18T14:42:26;7.35;;;2.70;;
57577;SDS011;43413;-33.790;150.826;2022-08-18T14:44:53;5.90;;;2.65;;
57577;SDS011;43413;-33.790;150.826;2022-08-18T14:47:23;4.13;;;2.40;;
57577;SDS011;43413;-33.790;150.826;2022-08-18T14:49:53;4.20;;;2.60;;
57577;SDS011;43413;-33.790;150.826;2022-08-18T14:52:22;5.70;;;2.53;;
57577;SDS011;43413;-33.790;150.826;2022-08-18T14:54:50;5.70;;;2.60;;
57577;SDS011;43413;-33.790;150.826;2022-08-18T14:57:17;5.00;;;2.47;;
57577;SDS011;43413;-33.790;150.826;2022-08-18T14:59:44;3.88;;;2.20;;
57577;SDS011;43413;-33.790;150.826;2022-08-18T15:02:12;4.50;;;2.38;;
57577;SDS011;43413;-33.790;150.826;2022-08-18T15:04:39;5.38;;;2.40;;
57577;SDS011;43413;-33.790;150.826;2022-08-18T15:07:16;4.68;;;2.78;;
57577;SDS011;43413;-33.790;150.826;2022-08-18T15:09:43;7.75;;;3.58;;
57577;SDS011;43413;-33.790;150.826;2022-08-18T15:12:11;11.23;;;2.90;;
57577;SDS011;43413;-33.790;150.826;2022-08-18T15:14:48;15.68;;;3.50;;
57577;SDS011;43413;-33.790;150.826;2022-08-18T15:17:16;13.15;;;3.80;;
57577;SDS011;43413;-33.790;150.826;2022-08-18T15:19:46;11.25;;;4.10;;
57577;SDS011;43413;-33.790;150.826;2022-08-18T15:22:13;12.73;;;3.88;;
57577;SDS011;43413;-33.790;150.826;2022-08-18T15:24:59;12.87;;;3.87;;
57577;SDS011;43413;-33.790;150.826;2022-08-18T15:27:44;12.85;;;4.47;;
57577;SDS011;43413;-33.790;150.826;2022-08-18T15:30:12;8.70;;;4.30;;
57577;SDS011;43413;-33.790;150.826;2022-08-18T15:32:42;11.65;;;4.97;;
57577;SDS011;43413;-33.790;150.826;2022-08-18T15:35:10;8.40;;;4.45;;
57577;SDS011;43413;-33.790;150.826;2022-08-18T15:37:41;11.35;;;4.93;;
57577;SDS011;43413;-33.790;150.826;2022-08-18T15:40:15;11.93;;;5.05;;
57577;SDS011;43413;-33.790;150.826;2022-08-18T15:42:48;10.38;;;5.40;;
57577;SDS011;43413;-33.790;150.826;2022-08-18T15:45:19;11.10;;;4.88;;
57577;SDS011;43413;-33.790;150.826;2022-08-18T15:47:52;12.20;;;5.13;;
57577;SDS011;43413;-33.790;150.826;2022-08-18T15:50:22;14.27;;;5.10;;
57577;SDS011;43413;-33.790;150.826;2022-08-18T15:52:50;10.32;;;5.15;;
57577;SDS011;43413;-33.790;150.826;2022-08-18T15:55:18;9.45;;;4.85;;
57577;SDS011;43413;-33.790;150.826;2022-08-18T15:57:46;10.30;;;5.00;;
57577;SDS011;43413;-33.790;150.826;2022-08-18T16:00:14;10.88;;;5.57;;
57577;SDS011;43413;-33.790;150.826;2022-08-18T16:02:50;8.48;;;4.20;;
57577;SDS011;43413;-33.790;150.826;2022-08-18T16:05:18;6.28;;;3.83;;
57577;SDS011;43413;-33.790;150.826;2022-08-18T16:07:49;6.95;;;3.60;;
57577;SDS011;43413;-33.790;150.826;2022-08-18T16:10:18;9.18;;;3.80;;
57577;SDS011;43413;-33.790;150.826;2022-08-18T16:12:45;7.93;;;3.30;;
57577;SDS011;43413;-33.790;150.826;2022-08-18T16:15:17;7.75;;;3.33;;
57577;SDS011;43413;-33.790;150.826;2022-08-18T16:17:44;4.93;;;2.88;;
57577;SDS011;43413;-33.790;150.826;2022-08-18T16:20:11;6.57;;;3.50;;
57577;SDS011;43413;-33.790;150.826;2022-08-18T16:22:39;6.80;;;2.88;;
57577;SDS011;43413;-33.790;150.826;2022-08-18T16:25:06;8.85;;;3.33;;
57577;SDS011;43413;-33.790;150.826;2022-08-18T16:27:34;4.28;;;2.50;;
57577;SDS011;43413;-33.790;150.826;2022-08-18T16:30:06;5.97;;;2.20;;
57577;SDS011;43413;-33.790;150.826;2022-08-18T16:32:34;3.95;;;1.98;;
57577;SDS011;43413;-33.790;150.826;2022-08-18T16:35:01;4.65;;;2.70;;
57577;SDS011;43413;-33.790;150.826;2022-08-18T16:37:28;4.60;;;2.50;;
57577;SDS011;43413;-33.790;150.826;2022-08-18T16:39:55;7.68;;;2.63;;
57577;SDS011;43413;-33.790;150.826;2022-08-18T16:42:22;5.15;;;2.65;;
57577;SDS011;43413;-33.790;150.826;2022-08-18T16:44:49;6.03;;;2.10;;
57577;SDS011;43413;-33.790;150.826;2022-08-18T16:47:20;4.90;;;1.90;;
57577;SDS011;43413;-33.790;150.826;2022-08-18T16:49:47;4.70;;;2.20;;